Time;durP1;ratioP1;P1;durP2;ratioP2;P2;SDS_P1;SDS_P2;PMS_P1;PMS_P2;Temp;Humidity;BMP_temperature;BMP_pressure;BME280_temperature;BME280_humidity;BME280_pressure;Samples;Min_cycle;Max_cycle;Signal;HPM_P1;HPM_P2
2021/05/27 00:01:56;;;;;;;4.88;4.38;;;;;;;9.74;93.86;95462.56;4914298;28;20139;-61
2021/05/27 00:04:21;;;;;;;8.43;4.53;;;;;;;9.99;95.19;95469.31;4912849;29;20032;-61
2021/05/27 00:06:46;;;;;;;5.72;4.95;;;;;;;9.90;93.99;95471.84;4922327;29;20063;-61
2021/05/27 00:09:12;;;;;;;5.43;4.50;;;;;;;9.87;93.47;95458.34;4932203;28;20028;-61
2021/05/27 00:11:37;;;;;;;5.30;4.80;;;;;;;10.10;94.49;95454.78;4932862;29;20027;-62
2021/05/27 00:14:03;;;;;;;6.32;5.32;;;;;;;10.08;94.83;95443.66;4931731;28;20039;-62
2021/05/27 00:16:30;;;;;;;7.80;5.25;;;;;;;10.09;94.53;95444.44;4931824;28;20186;-62
2021/05/27 00:18:56;;;;;;;5.05;4.43;;;;;;;10.15;93.98;95449.38;4930632;28;20140;-61
2021/05/27 00:21:21;;;;;;;7.55;5.20;;;;;;;10.21;94.19;95442.09;4930595;29;20097;-62
2021/05/27 00:23:47;;;;;;;4.55;4.00;;;;;;;9.41;92.45;95443.13;4931646;28;20470;-61
2021/05/27 00:26:13;;;;;;;6.38;5.10;;;;;;;9.70;93.73;95466.09;4933786;29;20055;-62
2021/05/27 00:28:38;;;;;;;4.00;3.70;;;;;;;9.29;93.03;95374.56;4931946;28;20047;-62
2021/05/27 00:31:05;;;;;;;5.80;4.65;;;;;;;9.73;94.13;95468.97;4930534;28;20048;-62
2021/05/27 00:33:30;;;;;;;5.95;4.18;;;;;;;10.03;94.78;95458.88;4931362;28;20494;-62
2021/05/27 00:35:56;;;;;;;4.45;3.95;;;;;;;9.88;92.68;95466.06;4930492;28;20042;-62
2021/05/27 00:38:21;;;;;;;3.55;3.08;;;;;;;9.76;92.93;95465.69;4933574;29;20028;-62
2021/05/27 00:40:46;;;;;;;3.40;3.10;;;;;;;9.82;92.71;95469.06;4930441;28;20110;-62
2021/05/27 00:43:12;;;;;;;3.15;2.33;;;;;;;9.63;92.36;95451.31;4919157;28;20661;-61
2021/05/27 00:45:37;;;;;;;3.75;2.35;;;;;;;9.53;92.14;95463.97;4912749;29;20044;-62
2021/05/27 00:48:03;;;;;;;5.03;2.72;;;;;;;8.98;92.84;95442.44;4915404;29;20032;-62
2021/05/27 00:50:29;;;;;;;3.30;3.00;;;;;;;9.13;92.83;95462.66;4933353;29;20103;-62
2021/05/27 00:52:56;;;;;;;2.72;2.17;;;;;;;9.30;92.94;95470.91;4913426;28;20059;-62
2021/05/27 00:55:27;;;;;;;4.10;3.60;;;;;;;9.52;93.68;95462.34;4924709;29;20043;-62
2021/05/27 00:57:53;;;;;;;4.13;3.65;;;;;;;9.73;94.45;95450.38;4931558;28;20491;-60
2021/05/27 01:00:23;;;;;;;4.78;4.28;;;;;;;10.02;94.03;95468.72;4931431;28;20039;-60
2021/05/27 01:02:49;;;;;;;4.55;3.65;;;;;;;10.18;94.50;95455.16;4930944;28;20035;-60
2021/05/27 01:05:16;;;;;;;4.75;3.95;;;;;;;10.28;95.04;95452.38;4933200;29;20039;-59
2021/05/27 01:07:43;;;;;;;5.10;3.55;;;;;;;10.44;94.26;95458.19;4915323;28;20040;-59
2021/05/27 01:10:10;;;;;;;4.35;3.63;;;;;;;10.52;93.94;95452.97;4912373;29;20473;-59
2021/05/27 01:12:36;;;;;;;5.18;4.10;;;;;;;10.61;93.74;95458.41;4912216;29;20514;-59
2021/05/27 01:17:47;;;;;;;3.90;3.60;;;;;;;10.67;94.02;95451.91;4912827;29;20043;-60
2021/05/27 01:20:13;;;;;;;4.22;3.92;;;;;;;10.75;93.70;95456.53;4914271;29;20021;-60
2021/05/27 01:22:39;;;;;;;3.65;3.35;;;;;;;10.79;94.60;95451.38;4927446;29;20040;-59
2021/05/27 01:25:09;;;;;;;4.15;3.47;;;;;;;10.76;94.01;95447.47;4920132;28;20403;-60
2021/05/27 01:27:35;;;;;;;2.88;2.67;;;;;;;10.68;93.65;95446.28;4912509;28;20048;-59
2021/05/27 01:30:01;;;;;;;4.10;3.70;;;;;;;10.62;92.72;95471.41;4912314;29;20048;-60
2021/05/27 01:32:27;;;;;;;3.50;3.20;;;;;;;10.47;93.62;95457.59;4913636;29;20091;-59
2021/05/27 01:34:52;;;;;;;3.75;3.13;;;;;;;10.56;94.04;95471.81;4929699;29;20043;-60
2021/05/27 01:37:18;;;;;;;4.28;3.13;;;;;;;10.51;93.55;95472.69;4931238;28;20565;-60
2021/05/27 01:39:46;;;;;;;4.88;3.90;;;;;;;10.59;94.00;95479.19;4930460;28;20036;-59
2021/05/27 01:42:11;;;;;;;3.97;2.75;;;;;;;10.38;91.03;95466.25;4930786;28;20475;-60
2021/05/27 01:44:37;;;;;;;3.17;2.88;;;;;;;10.37;93.09;95461.25;4933093;29;20031;-59
2021/05/27 01:47:03;;;;;;;4.47;3.35;;;;;;;10.48;93.71;95472.47;4911226;28;20036;-60
2021/05/27 01:49:28;;;;;;;3.95;3.20;;;;;;;10.45;94.12;95454.47;4912164;29;20052;-59
2021/05/27 01:51:54;;;;;;;4.18;3.70;;;;;;;10.53;93.85;95470.50;4910919;29;20048;-59
2021/05/27 01:54:19;;;;;;;5.68;4.65;;;;;;;10.66;93.95;95480.38;4911728;29;20039;-59
2021/05/27 01:56:45;;;;;;;4.60;4.05;;;;;;;10.62;94.38;95462.63;4912046;29;20111;-60
2021/05/27 01:59:10;;;;;;;5.07;4.20;;;;;;;10.67;94.55;95478.50;4915211;29;20032;-59
2021/05/27 02:01:36;;;;;;;6.00;4.60;;;;;;;10.77;94.42;95486.28;4915703;29;20135;-59
2021/05/27 02:04:02;;;;;;;5.40;4.03;;;;;;;10.79;94.27;95488.63;4915273;29;20040;-59
2021/05/27 02:06:28;;;;;;;5.28;3.80;;;;;;;10.79;94.46;95497.41;4914193;29;20064;-59
2021/05/27 02:09:11;;;;;;;5.45;3.25;;;;;;;10.75;94.76;95477.81;4915489;29;20059;-59
2021/05/27 02:11:39;;;;;;;3.67;2.80;;;;;;;10.59;93.38;95484.50;4917352;29;20076;-59
2021/05/27 02:14:06;;;;;;;5.10;3.95;;;;;;;10.62;93.25;95483.91;4934353;29;20044;-59
2021/05/27 02:16:32;;;;;;;3.55;3.25;;;;;;;10.65;93.78;95480.69;4919661;28;20122;-59
2021/05/27 02:18:58;;;;;;;5.15;4.63;;;;;;;10.38;92.66;95481.44;4924066;29;20103;-59
2021/05/27 02:21:24;;;;;;;4.50;4.10;;;;;;;10.47;94.13;95489.53;4933446;28;20048;-59
2021/05/27 02:23:57;;;;;;;7.05;4.85;;;;;;;10.51;94.25;95482.53;4932815;28;20438;-60
2021/05/27 02:26:23;;;;;;;4.22;3.83;;;;;;;10.53;93.91;95475.03;4935906;29;20478;-59
2021/05/27 02:28:49;;;;;;;6.72;5.32;;;;;;;10.60;94.10;95478.13;4934107;28;20058;-59
2021/05/27 02:31:16;;;;;;;5.45;4.50;;;;;;;10.63;94.51;95467.66;4921672;28;20607;-59
2021/05/27 02:33:42;;;;;;;4.40;4.00;;;;;;;10.63;93.50;95467.66;4932250;28;20075;-59
2021/05/27 02:36:08;;;;;;;5.43;4.78;;;;;;;10.70;93.64;95474.44;4934031;28;20067;-59
2021/05/27 02:38:34;;;;;;;6.65;5.32;;;;;;;10.66;93.43;95471.59;4935509;29;20479;-59
2021/05/27 02:41:00;;;;;;;5.72;4.47;;;;;;;10.50;93.38;95481.75;4933391;28;20095;-59
2021/05/27 02:43:28;;;;;;;7.32;5.60;;;;;;;9.77;93.56;95366.31;4933303;29;20047;-59
2021/05/27 02:45:53;;;;;;;4.90;4.40;;;;;;;10.61;93.50;95482.34;4933992;28;20530;-59
2021/05/27 02:48:19;;;;;;;6.05;5.45;;;;;;;10.47;92.08;95490.31;4933956;28;20068;-59
2021/05/27 02:50:44;;;;;;;4.80;4.07;;;;;;;10.40;92.17;95497.91;4933187;28;20402;-60
2021/05/27 02:53:10;;;;;;;7.30;5.70;;;;;;;10.45;93.46;95489.03;4916220;29;20036;-59
2021/05/27 02:55:35;;;;;;;6.03;4.80;;;;;;;10.16;93.46;95484.72;4914471;29;20041;-59
2021/05/27 02:58:00;;;;;;;6.78;5.80;;;;;;;10.35;93.87;95490.00;4914490;29;20039;-60
2021/05/27 03:00:26;;;;;;;6.38;4.75;;;;;;;10.38;93.50;95490.19;4920707;29;20195;-60
2021/05/27 03:02:51;;;;;;;6.90;5.32;;;;;;;10.38;93.54;95484.09;4933031;28;20031;-60
2021/05/27 03:05:16;;;;;;;6.20;5.55;;;;;;;10.54;94.81;95492.56;4934994;29;20644;-60
2021/05/27 03:07:42;;;;;;;7.13;5.18;;;;;;;10.48;93.19;95485.78;4933312;28;20039;-60
2021/05/27 03:10:08;;;;;;;5.57;5.00;;;;;;;10.37;92.72;95488.63;4932762;28;20078;-60
2021/05/27 03:12:33;;;;;;;6.00;5.05;;;;;;;10.44;93.08;95482.94;4931679;29;20494;-60
2021/05/27 03:14:58;;;;;;;6.22;5.40;;;;;;;10.44;93.83;95482.13;4933222;28;20047;-60
2021/05/27 03:17:24;;;;;;;5.82;5.03;;;;;;;10.51;93.36;95503.81;4934797;29;20067;-60
2021/05/27 03:19:49;;;;;;;5.70;5.20;;;;;;;10.48;93.73;95488.44;4933105;28;20043;-60
2021/05/27 03:22:15;;;;;;;6.80;6.05;;;;;;;10.48;93.71;95483.13;4932612;28;20087;-60
2021/05/27 03:24:40;;;;;;;7.78;6.05;;;;;;;10.59;94.03;95500.47;4933083;28;20039;-61
2021/05/27 03:27:06;;;;;;;4.68;4.28;;;;;;;10.61;94.09;95498.31;4933062;28;20548;-60
2021/05/27 03:29:31;;;;;;;6.35;5.10;;;;;;;10.14;89.27;95484.22;4934730;29;20157;-60
2021/05/27 03:31:56;;;;;;;5.50;5.00;;;;;;;10.37;92.68;95482.50;4932755;28;20135;-60
2021/05/27 03:34:22;;;;;;;9.13;4.78;;;;;;;10.44;93.83;95482.13;4932571;28;20455;-61
2021/05/27 03:36:47;;;;;;;5.88;5.30;;;;;;;10.48;93.64;95483.91;4931481;28;20142;-61
2021/05/27 03:39:13;;;;;;;6.88;5.80;;;;;;;10.54;93.84;95488.03;4932732;28;20090;-61
2021/05/27 03:41:38;;;;;;;7.20;6.53;;;;;;;10.54;93.52;95476.63;4934047;29;20359;-61
2021/05/27 03:44:03;;;;;;;6.15;5.55;;;;;;;10.63;93.54;95488.16;4932111;28;20047;-61
2021/05/27 03:46:31;;;;;;;5.38;4.88;;;;;;;10.68;93.74;95491.50;4917055;28;20036;-60
2021/05/27 03:48:56;;;;;;;12.52;6.47;;;;;;;10.67;92.93;95492.59;4922237;29;20095;-61
2021/05/27 03:51:22;;;;;;;7.40;6.60;;;;;;;10.64;92.93;95485.19;4926976;28;20490;-60
2021/05/27 03:53:47;;;;;;;4.75;4.10;;;;;;;10.77;93.36;95504.91;4913086;29;20141;-61
2021/05/27 03:56:13;;;;;;;5.75;5.05;;;;;;;10.78;92.62;95503.81;4915164;29;20063;-61
2021/05/27 04:01:21;;;;;;;5.47;4.97;;;;;;;10.82;92.99;95510.13;4913398;29;20059;-61
2021/05/27 04:09:15;;;;;;;4.18;3.80;;;;;;;10.87;92.63;95498.59;4927674;28;20050;-60
2021/05/27 04:11:40;;;;;;;4.90;4.47;;;;;;;10.91;92.51;95504.91;4913210;29;20631;-61
2021/05/27 04:14:05;;;;;;;5.85;4.88;;;;;;;10.96;92.41;95490.72;4933425;29;20031;-61
2021/05/27 04:16:31;;;;;;;3.75;3.45;;;;;;;11.03;92.87;95483.13;4932235;28;20497;-60
2021/05/27 04:18:56;;;;;;;4.32;3.92;;;;;;;11.00;92.35;95476.50;4932021;28;20028;-60
2021/05/27 04:21:22;;;;;;;4.22;3.35;;;;;;;11.14;92.14;95487.91;4931230;28;20095;-61
2021/05/27 04:23:47;;;;;;;3.42;3.13;;;;;;;11.22;92.18;95497.09;4931448;28;20036;-61
2021/05/27 04:26:14;;;;;;;6.25;3.60;;;;;;;11.28;91.94;95495.88;4933500;29;20026;-60
2021/05/27 04:28:41;;;;;;;4.32;4.00;;;;;;;11.31;91.73;95500.63;4916307;28;20040;-60
2021/05/27 04:31:10;;;;;;;3.30;3.00;;;;;;;11.33;91.29;95493.13;4912982;29;20040;-60
2021/05/27 04:33:40;;;;;;;4.63;3.65;;;;;;;11.35;91.32;95496.25;4919430;29;20047;-60
2021/05/27 04:36:07;;;;;;;4.22;3.83;;;;;;;11.42;91.23;95495.88;4930503;29;20059;-61
2021/05/27 04:38:32;;;;;;;6.05;3.75;;;;;;;11.37;92.09;95485.31;4933631;29;20164;-60
2021/05/27 04:40:58;;;;;;;4.03;2.83;;;;;;;11.43;91.42;95503.56;4931681;28;20573;-60
2021/05/27 04:43:23;;;;;;;3.90;3.50;;;;;;;11.38;91.29;95513.53;4931219;28;20043;-61
2021/05/27 04:45:48;;;;;;;4.35;3.95;;;;;;;11.34;91.24;95504.56;4930365;28;20043;-61
2021/05/27 04:48:15;;;;;;;4.18;3.50;;;;;;;11.35;91.13;95509.56;4927121;28;20071;-61
2021/05/27 04:50:46;;;;;;;4.45;4.05;;;;;;;11.35;91.24;95506.13;4912487;29;20542;-61
2021/05/27 04:53:12;;;;;;;3.33;3.03;;;;;;;11.34;91.90;95507.22;4914097;29;20031;-61
2021/05/27 04:55:37;;;;;;;4.13;3.78;;;;;;;11.33;91.43;95509.09;4912347;29;20048;-61
2021/05/27 04:58:05;;;;;;;3.42;3.00;;;;;;;11.32;91.69;95512.06;4912461;29;20028;-61
2021/05/27 05:00:31;;;;;;;3.78;2.90;;;;;;;11.35;90.88;95524.78;4912332;29;20090;-61
2021/05/27 05:02:57;;;;;;;2.20;2.10;;;;;;;11.35;91.43;95514.91;4911844;29;20039;-61
2021/05/27 05:05:24;;;;;;;2.45;2.25;;;;;;;11.33;91.35;95503.00;4914350;29;20033;-61
2021/05/27 05:07:50;;;;;;;3.05;2.75;;;;;;;11.35;90.82;95504.25;4912363;29;20059;-61
2021/05/27 05:10:17;;;;;;;2.30;2.10;;;;;;;11.29;91.42;95488.69;4912426;29;20074;-62
2021/05/27 05:13:01;;;;;;;2.10;2.00;;;;;;;11.39;90.86;95509.78;4911864;29;20040;-61
2021/05/27 05:15:28;;;;;;;2.00;1.90;;;;;;;11.38;90.75;95506.31;4912466;29;20028;-61
2021/05/27 05:18:00;;;;;;;2.22;2.03;;;;;;;11.04;89.95;95484.69;4912428;29;20028;-62
2021/05/27 05:20:27;;;;;;;5.00;2.33;;;;;;;11.11;89.56;95522.34;4913915;29;20025;-62
2021/05/27 05:22:53;;;;;;;2.78;2.00;;;;;;;11.10;89.81;95507.44;4929049;29;20123;-61
2021/05/27 05:25:19;;;;;;;4.07;2.05;;;;;;;11.25;90.84;95515.13;4931233;28;20127;-61
2021/05/27 05:27:45;;;;;;;2.20;2.00;;;;;;;11.32;90.34;95517.41;4923038;28;20044;-62
2021/05/27 05:30:12;;;;;;;2.25;2.05;;;;;;;11.38;90.13;95516.19;4912297;29;20087;-62
2021/05/27 05:32:38;;;;;;;2.15;1.70;;;;;;;11.43;90.73;95532.06;4914221;29;20036;-62
2021/05/27 05:35:06;;;;;;;1.92;1.40;;;;;;;11.40;89.41;95530.78;4933249;29;20541;-61
2021/05/27 05:37:31;;;;;;;1.73;1.63;;;;;;;11.50;89.31;95534.31;4935026;28;20095;-61
2021/05/27 05:39:57;;;;;;;2.08;1.60;;;;;;;11.54;89.58;95524.63;4933566;28;20048;-61
2021/05/27 05:42:22;;;;;;;1.85;1.75;;;;;;;11.50;88.02;95544.97;4934294;28;20040;-63
2021/05/27 05:44:48;;;;;;;1.40;1.30;;;;;;;11.51;88.16;95535.88;4933860;28;20027;-62
2021/05/27 05:47:13;;;;;;;1.55;1.40;;;;;;;11.59;88.67;95541.31;4917710;29;20058;-64
2021/05/27 05:49:38;;;;;;;1.75;1.58;;;;;;;11.73;89.36;95532.50;4915675;29;20044;-64
2021/05/27 05:52:04;;;;;;;2.58;1.73;;;;;;;11.84;87.92;95544.53;4915919;29;20131;-67
2021/05/27 05:54:29;;;;;;;2.80;1.90;;;;;;;12.04;88.96;95541.38;4915883;29;20095;-62
2021/05/27 05:56:55;;;;;;;2.72;1.92;;;;;;;12.27;88.55;95536.03;4915552;28;20056;-69
2021/05/27 05:59:20;;;;;;;1.73;1.60;;;;;;;12.60;87.56;95533.88;4914422;29;20467;-63
2021/05/27 06:01:46;;;;;;;1.75;1.10;;;;;;;12.90;86.43;95517.06;4932437;28;20046;-62
2021/05/27 06:04:11;;;;;;;1.92;1.10;;;;;;;13.23;85.52;95522.03;4933222;28;20043;-63
2021/05/27 06:06:36;;;;;;;2.67;1.10;;;;;;;13.44;84.11;95536.38;4934426;28;20112;-62
2021/05/27 06:09:02;;;;;;;3.28;1.42;;;;;;;13.57;83.98;95524.00;4934223;28;20044;-61
2021/05/27 06:11:28;;;;;;;3.08;0.95;;;;;;;13.47;82.42;95525.06;4936287;29;20515;-61
2021/05/27 06:13:54;;;;;;;1.40;1.15;;;;;;;13.45;81.54;95531.81;4951499;28;20375;-61
2021/05/27 06:16:20;;;;;;;4.47;1.10;;;;;;;13.24;81.04;95528.94;4953479;28;20047;-59
2021/05/27 06:18:45;;;;;;;1.20;0.75;;;;;;;13.22;80.32;95536.50;4953141;28;20063;-60
2021/05/27 06:21:11;;;;;;;0.70;0.70;;;;;;;13.15;80.21;95499.50;4953223;28;20070;-61
2021/05/27 06:23:36;;;;;;;1.90;1.00;;;;;;;13.38;81.03;95526.94;4954844;28;20030;-65
2021/05/27 06:26:02;;;;;;;1.77;1.00;;;;;;;13.59;81.53;95532.47;4953293;28;20445;-66
2021/05/27 06:28:28;;;;;;;1.02;0.88;;;;;;;13.66;80.44;95537.34;4953044;28;20039;-64
2021/05/27 06:30:55;;;;;;;0.90;0.90;;;;;;;13.26;75.62;95545.47;4953185;28;20042;-66
2021/05/27 06:33:21;;;;;;;2.30;0.90;;;;;;;12.83;76.16;95534.59;4950987;28;20047;-70
2021/05/27 06:35:46;;;;;;;1.55;0.80;;;;;;;13.39;78.66;95538.41;4953141;28;20020;-62
2021/05/27 06:38:14;;;;;;;1.65;0.98;;;;;;;13.81;79.19;95544.91;4954955;28;20027;-63
2021/05/27 06:40:40;;;;;;;2.95;1.25;;;;;;;13.79;77.15;95550.56;4937364;28;20040;-65
2021/05/27 06:43:06;;;;;;;1.60;0.70;;;;;;;13.99;74.04;95540.34;4944433;28;20112;-66
2021/05/27 06:45:32;;;;;;;1.25;0.80;;;;;;;13.96;75.76;95552.47;4952229;28;20642;-77
2021/05/27 06:47:57;;;;;;;1.23;0.73;;;;;;;14.17;74.80;95544.56;4953034;28;20078;-73
2021/05/27 06:50:40;;;;;;;0.70;0.60;;;;;;;14.61;74.63;95555.25;4954667;28;20040;-65
2021/05/27 06:53:11;;;;;;;2.92;0.70;;;;;;;15.02;74.92;95534.00;4952193;28;20071;-67
2021/05/27 06:55:38;;;;;;;2.70;1.02;;;;;;;15.41;73.61;95529.38;4951199;28;20035;-63
2021/05/27 06:58:05;;;;;;;1.63;0.60;;;;;;;15.83;71.74;95529.44;4952876;28;20370;-66
2021/05/27 07:00:31;;;;;;;1.02;0.82;;;;;;;15.93;67.54;95539.78;4952459;28;20027;-62
2021/05/27 07:02:56;;;;;;;0.95;0.85;;;;;;;16.05;68.74;95542.50;4950867;28;20038;-62
2021/05/27 07:05:24;;;;;;;2.35;0.98;;;;;;;16.03;68.38;95534.03;4953057;29;20118;-64
2021/05/27 07:07:49;;;;;;;1.00;0.55;;;;;;;15.88;69.68;95542.66;4952445;28;20122;-68
2021/05/27 07:10:17;;;;;;;2.38;0.70;;;;;;;15.39;67.83;95534.28;4952598;28;20462;-69
2021/05/27 07:12:49;;;;;;;1.25;0.73;;;;;;;15.19;71.43;95543.06;4950468;28;20049;-64
2021/05/27 07:15:15;;;;;;;1.05;0.70;;;;;;;15.10;70.68;95529.72;4952341;28;20047;-66
2021/05/27 07:17:41;;;;;;;0.63;0.50;;;;;;;15.26;70.94;95546.03;4954274;28;20094;-66
2021/05/27 07:20:07;;;;;;;0.65;0.65;;;;;;;14.19;66.85;95550.41;4952260;28;20043;-64
2021/05/27 07:22:32;;;;;;;2.05;0.50;;;;;;;12.75;72.76;95549.50;4951798;28;20047;-64
2021/05/27 07:24:58;;;;;;;2.17;0.70;;;;;;;13.71;74.53;95545.22;4952039;28;20035;-64
2021/05/27 07:27:23;;;;;;;1.75;0.55;;;;;;;14.03;70.06;95546.66;4952092;28;20031;-64
2021/05/27 07:29:49;;;;;;;1.65;0.60;;;;;;;13.91;72.15;95549.16;4951963;28;20441;-65
2021/05/27 07:32:15;;;;;;;0.65;0.65;;;;;;;13.73;67.99;95541.13;4953523;28;20035;-65
2021/05/27 07:34:43;;;;;;;1.20;0.80;;;;;;;12.48;71.70;95563.78;4952142;28;20126;-65
2021/05/27 07:37:08;;;;;;;1.00;0.90;;;;;;;12.07;74.21;95559.44;4951946;28;20393;-65
2021/05/27 07:39:34;;;;;;;0.60;0.60;;;;;;;12.16;74.56;95552.28;4952015;28;20046;-64
2021/05/27 07:41:59;;;;;;;1.75;0.75;;;;;;;11.46;77.17;95547.44;4952030;28;20031;-64
2021/05/27 07:44:25;;;;;;;1.83;0.80;;;;;;;11.03;78.12;95571.75;4953204;28;20035;-66
2021/05/27 07:46:50;;;;;;;0.60;0.60;;;;;;;11.14;80.66;95572.34;4951798;28;20119;-65
2021/05/27 07:49:15;;;;;;;0.93;0.93;;;;;;;11.44;78.50;95570.94;4951678;28;20102;-65
2021/05/27 07:51:41;;;;;;;1.08;0.60;;;;;;;11.38;76.46;95582.78;4951545;28;20122;-67
2021/05/27 07:54:06;;;;;;;2.20;0.80;;;;;;;11.24;73.26;95580.13;4950862;28;20044;-66
2021/05/27 07:56:32;;;;;;;1.30;0.70;;;;;;;11.91;74.59;95564.31;4953092;28;20489;-66
2021/05/27 07:58:58;;;;;;;1.30;0.90;;;;;;;11.44;72.99;95571.72;4951291;28;20043;-66
2021/05/27 08:01:24;;;;;;;1.67;0.75;;;;;;;11.01;73.94;95573.91;4951301;28;20401;-67
2021/05/27 08:03:50;;;;;;;1.70;0.98;;;;;;;11.33;72.29;95575.69;4950997;28;20041;-67
2021/05/27 08:06:15;;;;;;;1.20;0.75;;;;;;;11.91;73.74;95561.66;4951258;28;20031;-66
2021/05/27 08:08:40;;;;;;;1.30;0.60;;;;;;;11.71;73.03;95572.75;4951210;28;20027;-65
2021/05/27 08:11:06;;;;;;;1.13;0.57;;;;;;;11.35;73.71;95586.81;4953103;28;20042;-66
2021/05/27 08:13:31;;;;;;;1.02;0.77;;;;;;;11.24;71.11;95588.09;4950822;28;20042;-67
2021/05/27 08:15:57;;;;;;;0.60;0.60;;;;;;;11.31;74.07;95579.72;4949746;28;20401;-67
2021/05/27 08:18:22;;;;;;;0.65;0.65;;;;;;;12.25;69.70;95576.34;4951187;28;20070;-66
2021/05/27 08:20:48;;;;;;;1.50;0.73;;;;;;;12.75;69.53;95579.66;4950970;28;20090;-66
2021/05/27 08:23:13;;;;;;;0.75;0.63;;;;;;;11.67;69.64;95583.22;4952277;28;20027;-66
2021/05/27 08:25:38;;;;;;;0.68;0.68;;;;;;;11.18;72.68;95605.28;4949605;28;20039;-66
2021/05/27 08:28:04;;;;;;;0.82;0.77;;;;;;;11.15;71.42;95595.19;4950815;28;20081;-67
2021/05/27 08:30:29;;;;;;;0.52;0.52;;;;;;;11.65;70.77;95589.94;4950671;28;20134;-66
2021/05/27 08:32:55;;;;;;;0.57;0.50;;;;;;;11.80;71.37;95583.50;4950335;28;20058;-67
2021/05/27 08:35:20;;;;;;;1.02;0.60;;;;;;;12.75;67.36;95589.53;4952858;28;20054;-67
2021/05/27 08:37:47;;;;;;;1.10;0.65;;;;;;;12.46;66.14;95588.09;4950814;28;20459;-66
2021/05/27 08:40:13;;;;;;;0.40;0.40;;;;;;;11.26;65.93;95599.28;4949397;28;20590;-65
2021/05/27 08:42:38;;;;;;;0.70;0.60;;;;;;;11.75;67.28;95604.91;4950208;28;20074;-65
2021/05/27 08:45:07;;;;;;;0.73;0.47;;;;;;;10.94;68.89;95587.59;4950772;28;20104;-66
2021/05/27 08:47:33;;;;;;;1.05;0.70;;;;;;;11.31;68.93;95601.00;4952603;28;20050;-66
2021/05/27 08:50:00;;;;;;;2.45;0.80;;;;;;;11.81;67.41;95587.72;4950788;28;20050;-66
2021/05/27 08:52:25;;;;;;;0.77;0.60;;;;;;;11.50;67.81;95587.59;4950179;28;20055;-65
2021/05/27 08:54:51;;;;;;;0.65;0.65;;;;;;;11.28;68.41;95593.63;4950687;28;20039;-66
2021/05/27 08:57:16;;;;;;;3.45;0.90;;;;;;;12.08;66.81;95595.69;4949215;28;20592;-67
2021/05/27 08:59:42;;;;;;;0.93;0.65;;;;;;;13.47;67.43;95583.09;4950498;28;20504;-66
2021/05/27 09:02:09;;;;;;;0.90;0.75;;;;;;;12.95;63.66;95583.66;4952145;28;20032;-66
2021/05/27 09:04:35;;;;;;;0.70;0.55;;;;;;;12.95;65.47;95607.69;4949121;28;20042;-67
2021/05/27 09:07:02;;;;;;;1.75;0.75;;;;;;;12.02;67.61;95612.88;4950840;28;20063;-66
2021/05/27 09:09:48;;;;;;;0.85;0.70;;;;;;;12.23;67.32;95615.84;4956539;28;20486;-66
2021/05/27 09:12:23;;;;;;;1.08;0.80;;;;;;;12.14;67.76;95602.47;4956329;28;20054;-67
2021/05/27 09:14:49;;;;;;;2.38;0.77;;;;;;;12.32;67.29;95600.72;4956742;28;20039;-66
2021/05/27 09:17:14;;;;;;;1.10;0.63;;;;;;;12.16;65.57;95597.63;4958661;28;20329;-65
2021/05/27 09:19:40;;;;;;;0.50;0.50;;;;;;;12.08;64.26;95616.22;4956787;28;20035;-66
2021/05/27 09:22:20;;;;;;;3.08;0.80;;;;;;;13.04;63.67;95620.28;4956519;28;20071;-65
2021/05/27 09:24:49;;;;;;;2.25;0.90;;;;;;;13.72;62.09;95616.31;4955465;28;20101;-66
2021/05/27 09:27:15;;;;;;;2.10;0.77;;;;;;;12.76;59.19;95620.47;4955629;28;20046;-66
2021/05/27 09:29:47;;;;;;;2.22;1.05;;;;;;;12.14;61.65;95599.03;4958506;28;20393;-66
2021/05/27 09:32:14;;;;;;;2.60;0.80;;;;;;;12.80;60.26;95613.44;4956344;28;20122;-66
2021/05/27 09:34:43;;;;;;;1.33;1.05;;;;;;;13.32;59.19;95615.56;4956521;28;20078;-66
2021/05/27 09:37:18;;;;;;;0.90;0.88;;;;;;;12.42;60.00;95581.78;4956655;28;20039;-65
2021/05/27 09:39:45;;;;;;;3.05;0.90;;;;;;;12.87;59.32;95608.44;4956442;28;20040;-65
2021/05/27 09:42:10;;;;;;;0.52;0.52;;;;;;;13.18;58.70;95612.97;4956151;28;20098;-68
2021/05/27 09:44:36;;;;;;;1.58;1.00;;;;;;;12.95;60.88;95598.91;4958299;28;20027;-65
2021/05/27 09:47:04;;;;;;;2.50;0.80;;;;;;;13.05;60.47;95600.50;4956820;28;20529;-67
2021/05/27 09:49:31;;;;;;;1.75;0.85;;;;;;;12.12;61.92;95611.84;4955327;28;20060;-66
2021/05/27 09:52:11;;;;;;;1.67;1.00;;;;;;;11.97;63.20;95624.44;4956656;28;20043;-66
2021/05/27 09:54:52;;;;;;;1.63;1.00;;;;;;;12.33;63.51;95620.16;4955105;28;20043;-65
2021/05/27 09:57:25;;;;;;;2.70;1.17;;;;;;;12.78;61.82;95625.50;4956566;28;20031;-64
2021/05/27 09:59:51;;;;;;;2.63;1.10;;;;;;;11.96;64.32;95620.19;4956527;28;20027;-66
2021/05/27 10:02:18;;;;;;;1.35;0.90;;;;;;;11.73;67.58;95610.56;4956526;28;20485;-72
2021/05/27 10:04:56;;;;;;;2.50;1.17;;;;;;;11.95;67.56;95625.84;4955000;28;20043;-67
2021/05/27 10:07:39;;;;;;;2.28;1.25;;;;;;;11.45;70.38;95647.88;4956434;28;20054;-64
2021/05/27 10:10:07;;;;;;;1.40;1.27;;;;;;;12.16;69.36;95629.63;4954915;28;20489;-62
2021/05/27 10:12:39;;;;;;;1.35;1.10;;;;;;;11.88;68.69;95620.94;4956012;28;20389;-66
2021/05/27 10:15:05;;;;;;;1.90;0.95;;;;;;;11.50;68.01;95624.88;4956342;28;20042;-64
2021/05/27 10:17:32;;;;;;;1.13;1.00;;;;;;;11.99;65.23;95626.81;4958278;28;20029;-64
2021/05/27 10:19:58;;;;;;;1.58;0.80;;;;;;;12.23;63.22;95622.00;4951949;28;20043;-62
2021/05/27 10:22:23;;;;;;;2.22;0.80;;;;;;;11.67;64.42;95633.06;4952772;28;20039;-62
2021/05/27 10:24:48;;;;;;;2.60;1.00;;;;;;;11.74;66.73;95636.13;4953029;28;20040;-62
2021/05/27 10:27:14;;;;;;;2.15;1.17;;;;;;;11.63;68.35;95632.09;4953107;28;20039;-62
2021/05/27 10:29:40;;;;;;;1.70;1.10;;;;;;;11.85;70.03;95640.16;4954950;28;20064;-62
2021/05/27 10:32:06;;;;;;;1.17;1.02;;;;;;;12.23;67.96;95645.19;4952759;28;20070;-61
2021/05/27 10:34:50;;;;;;;2.00;1.20;;;;;;;13.63;64.29;95632.31;4952883;28;20039;-62
2021/05/27 10:37:43;;;;;;;2.65;0.90;;;;;;;13.16;62.55;95631.19;4951374;28;20035;-63
2021/05/27 10:40:11;;;;;;;1.50;0.85;;;;;;;13.25;62.30;95640.03;4952271;28;20043;-62
2021/05/27 10:42:55;;;;;;;3.45;1.75;;;;;;;14.21;58.35;95636.50;4952135;28;20441;-62
2021/05/27 10:45:20;;;;;;;1.30;0.88;;;;;;;15.29;58.90;95633.81;4952662;28;20412;-63
2021/05/27 10:48:11;;;;;;;1.25;0.80;;;;;;;14.08;56.94;95629.41;4952741;28;20038;-62
2021/05/27 10:50:55;;;;;;;1.02;0.75;;;;;;;14.10;55.87;95621.84;4953273;29;20066;-63
2021/05/27 10:53:32;;;;;;;1.95;1.30;;;;;;;15.22;53.38;95630.84;4952499;28;20040;-63
2021/05/27 10:56:00;;;;;;;0.95;0.90;;;;;;;15.40;54.33;95610.91;4952291;28;20457;-62
2021/05/27 10:58:52;;;;;;;0.73;0.70;;;;;;;16.43;51.96;95605.19;4952330;28;20405;-62
2021/05/27 11:01:29;;;;;;;0.88;0.63;;;;;;;16.18;49.94;95607.00;4945398;28;20043;-64
2021/05/27 11:03:59;;;;;;;1.02;0.50;;;;;;;17.13;47.59;95603.41;4942201;28;20054;-64
2021/05/27 11:06:34;;;;;;;0.77;0.57;;;;;;;18.02;49.39;95608.13;4952122;28;20512;-64
2021/05/27 11:09:16;;;;;;;0.88;0.60;;;;;;;14.90;52.70;95624.19;4952261;28;20462;-63
2021/05/27 11:11:51;;;;;;;1.52;0.85;;;;;;;15.58;51.35;95614.28;4952326;28;20674;-62
2021/05/27 11:14:24;;;;;;;1.58;1.05;;;;;;;15.66;50.55;95613.50;4953697;28;20027;-63
2021/05/27 11:17:01;;;;;;;0.52;0.50;;;;;;;16.16;50.85;95619.94;4952084;28;20047;-64
2021/05/27 11:19:53;;;;;;;0.63;0.40;;;;;;;17.11;50.71;95611.81;4952068;28;20040;-64
2021/05/27 11:22:32;;;;;;;;;;;;;;;17.77;49.03;95610.06;4951853;28;20046;-64
2021/05/27 11:25:09;;;;;;;2.30;0.85;;;;;;;17.15;49.32;95610.03;4951762;28;20448;-64
2021/05/27 11:28:00;;;;;;;0.88;0.73;;;;;;;14.47;53.88;95615.09;4951965;28;20074;-64
2021/05/27 11:30:40;;;;;;;1.60;0.40;;;;;;;14.89;53.13;95619.91;4950380;28;20043;-65
2021/05/27 11:33:12;;;;;;;1.27;0.60;;;;;;;13.00;58.02;95618.25;4950924;28;20170;-64
2021/05/27 11:35:37;;;;;;;0.68;0.55;;;;;;;14.54;55.40;95612.75;4953378;28;20035;-66
2021/05/27 11:38:07;;;;;;;2.67;0.82;;;;;;;13.42;55.78;95613.41;4951645;28;20031;-66
2021/05/27 11:40:37;;;;;;;1.50;0.70;;;;;;;14.62;55.41;95621.84;4951867;28;20032;-66
2021/05/27 11:43:03;;;;;;;0.93;0.60;;;;;;;15.78;53.52;95610.09;4950655;28;20050;-64
2021/05/27 11:45:42;;;;;;;1.23;0.70;;;;;;;15.44;51.08;95611.81;4951532;28;20074;-64
2021/05/27 11:48:17;;;;;;;1.20;0.60;;;;;;;15.74;49.14;95615.31;4951286;28;20035;-64